sensor_id;sensor_type;location;lat;lon;timestamp;pressure;altitude;pressure_sealevel;temperature;humidity
13367;BME280;6752;52.612;13.630;2023-05-29T00:04:17;101339.91;;;11.81;80.29
13367;BME280;6752;52.612;13.630;2023-05-29T00:09:19;101331.73;;;11.68;79.92
13367;BME280;6752;52.612;13.630;2023-05-29T00:14:21;101337.09;;;11.53;80.84
13367;BME280;6752;52.612;13.630;2023-05-29T00:19:24;101339.31;;;11.43;81.06
13367;BME280;6752;52.612;13.630;2023-05-29T00:24:26;101332.60;;;11.36;80.92
13367;BME280;6752;52.612;13.630;2023-05-29T00:29:29;101336.03;;;11.34;80.21
13367;BME280;6752;52.612;13.630;2023-05-29T00:34:31;101332.80;;;11.25;80.06
13367;BME280;6752;52.612;13.630;2023-05-29T00:39:33;101340.42;;;10.99;80.42
13367;BME280;6752;52.612;13.630;2023-05-29T00:44:36;101340.49;;;10.81;82.79
13367;BME280;6752;52.612;13.630;2023-05-29T00:49:38;101329.58;;;10.78;82.82
13367;BME280;6752;52.612;13.630;2023-05-29T00:54:42;101342.37;;;10.71;83.38
13367;BME280;6752;52.612;13.630;2023-05-29T00:59:43;101343.68;;;10.61;83.41
13367;BME280;6752;52.612;13.630;2023-05-29T01:04:45;101347.02;;;10.53;82.75
13367;BME280;6752;52.612;13.630;2023-05-29T01:09:47;101347.06;;;10.39;84.09
13367;BME280;6752;52.612;13.630;2023-05-29T01:15:04;101345.91;;;10.38;83.83
13367;BME280;6752;52.612;13.630;2023-05-29T01:20:24;101354.88;;;10.14;84.19
13367;BME280;6752;52.612;13.630;2023-05-29T01:25:28;101359.16;;;10.13;83.56
13367;BME280;6752;52.612;13.630;2023-05-29T01:30:26;101356.19;;;9.87;85.71
13367;BME280;6752;52.612;13.630;2023-05-29T01:35:28;101357.65;;;9.86;86.08
13367;BME280;6752;52.612;13.630;2023-05-29T01:40:31;101359.19;;;9.81;86.58
13367;BME280;6752;52.612;13.630;2023-05-29T01:45:33;101354.30;;;9.56;86.49
13367;BME280;6752;52.612;13.630;2023-05-29T01:50:36;101363.56;;;9.48;87.53
13367;BME280;6752;52.612;13.630;2023-05-29T01:55:38;101362.77;;;9.43;86.67
13367;BME280;6752;52.612;13.630;2023-05-29T02:00:40;101354.56;;;9.37;88.09
13367;BME280;6752;52.612;13.630;2023-05-29T02:05:43;101350.95;;;9.30;91.65
13367;BME280;6752;52.612;13.630;2023-05-29T02:10:45;101360.22;;;9.25;90.31
13367;BME280;6752;52.612;13.630;2023-05-29T02:15:47;101362.72;;;9.37;91.06
13367;BME280;6752;52.612;13.630;2023-05-29T02:20:50;101355.97;;;9.29;88.07
13367;BME280;6752;52.612;13.630;2023-05-29T02:25:52;101358.22;;;9.01;88.81
13367;BME280;6752;52.612;13.630;2023-05-29T02:30:54;101362.30;;;9.01;87.70
13367;BME280;6752;52.612;13.630;2023-05-29T02:35:56;101359.02;;;8.88;90.12
13367;BME280;6752;52.612;13.630;2023-05-29T02:40:59;101352.86;;;8.90;89.79
13367;BME280;6752;52.612;13.630;2023-05-29T02:46:01;101372.89;;;8.85;90.51
13367;BME280;6752;52.612;13.630;2023-05-29T02:51:03;101374.09;;;8.80;90.20
13367;BME280;6752;52.612;13.630;2023-05-29T02:56:06;101374.91;;;8.77;90.11
13367;BME280;6752;52.612;13.630;2023-05-29T03:01:08;101370.92;;;8.69;91.43
13367;BME280;6752;52.612;13.630;2023-05-29T03:06:11;101379.73;;;8.70;88.82
13367;BME280;6752;52.612;13.630;2023-05-29T03:11:13;101386.48;;;8.67;88.46
13367;BME280;6752;52.612;13.630;2023-05-29T03:16:16;101390.80;;;8.44;89.61
13367;BME280;6752;52.612;13.630;2023-05-29T03:21:18;101381.45;;;8.50;89.60
13367;BME280;6752;52.612;13.630;2023-05-29T03:26:24;101381.14;;;8.67;88.42
13367;BME280;6752;52.612;13.630;2023-05-29T03:31:22;101377.06;;;8.67;89.48
13367;BME280;6752;52.612;13.630;2023-05-29T03:36:25;101371.86;;;8.76;87.50
13367;BME280;6752;52.612;13.630;2023-05-29T03:41:27;101381.50;;;8.71;91.41
13367;BME280;6752;52.612;13.630;2023-05-29T03:46:30;101381.57;;;8.85;92.12
13367;BME280;6752;52.612;13.630;2023-05-29T03:51:32;101383.25;;;8.97;94.94
13367;BME280;6752;52.612;13.630;2023-05-29T03:56:34;101383.45;;;9.16;94.21
13367;BME280;6752;52.612;13.630;2023-05-29T04:01:37;101382.11;;;9.41;94.53
13367;BME280;6752;52.612;13.630;2023-05-29T04:06:39;101381.98;;;9.74;100.00
13367;BME280;6752;52.612;13.630;2023-05-29T04:11:42;101384.86;;;9.97;100.00
13367;BME280;6752;52.612;13.630;2023-05-29T04:16:44;101384.19;;;10.09;100.00
13367;BME280;6752;52.612;13.630;2023-05-29T04:21:46;101388.78;;;10.40;100.00
13367;BME280;6752;52.612;13.630;2023-05-29T04:26:49;101390.73;;;10.80;100.00
13367;BME280;6752;52.612;13.630;2023-05-29T04:31:51;101385.48;;;11.22;100.00
13367;BME280;6752;52.612;13.630;2023-05-29T04:36:53;101385.61;;;11.41;100.00
13367;BME280;6752;52.612;13.630;2023-05-29T04:41:56;101381.72;;;11.82;100.00
13367;BME280;6752;52.612;13.630;2023-05-29T04:46:58;101386.36;;;12.27;100.00
13367;BME280;6752;52.612;13.630;2023-05-29T04:52:04;101395.25;;;12.45;100.00
13367;BME280;6752;52.612;13.630;2023-05-29T04:57:06;101394.78;;;12.99;100.00
13367;BME280;6752;52.612;13.630;2023-05-29T05:02:08;101390.65;;;13.41;99.41
13367;BME280;6752;52.612;13.630;2023-05-29T05:07:11;101392.38;;;13.76;94.35
13367;BME280;6752;52.612;13.630;2023-05-29T05:12:13;101395.61;;;14.22;89.86
13367;BME280;6752;52.612;13.630;2023-05-29T05:17:16;101401.97;;;14.65;87.06
13367;BME280;6752;52.612;13.630;2023-05-29T05:22:18;101393.67;;;14.96;82.30
13367;BME280;6752;52.612;13.630;2023-05-29T05:27:20;101399.49;;;15.17;80.49
13367;BME280;6752;52.612;13.630;2023-05-29T05:32:22;101396.89;;;15.70;77.83
13367;BME280;6752;52.612;13.630;2023-05-29T05:37:24;101399.00;;;15.89;76.43
13367;BME280;6752;52.612;13.630;2023-05-29T05:42:26;101396.98;;;16.39;72.19
13367;BME280;6752;52.612;13.630;2023-05-29T05:47:28;101401.55;;;16.60;70.07
13367;BME280;6752;52.612;13.630;2023-05-29T05:52:30;101399.09;;;17.15;69.51
13367;BME280;6752;52.612;13.630;2023-05-29T05:57:33;101407.86;;;17.12;66.88
13367;BME280;6752;52.612;13.630;2023-05-29T06:02:35;101406.67;;;18.01;64.46
13367;BME280;6752;52.612;13.630;2023-05-29T06:07:37;101411.42;;;17.72;65.03
13367;BME280;6752;52.612;13.630;2023-05-29T06:12:40;101420.16;;;18.28;62.08
13367;BME280;6752;52.612;13.630;2023-05-29T06:17:42;101409.55;;;18.91;61.74
13367;BME280;6752;52.612;13.630;2023-05-29T06:22:45;101418.00;;;19.31;58.59
13367;BME280;6752;52.612;13.630;2023-05-29T06:27:47;101415.25;;;19.74;55.62
13367;BME280;6752;52.612;13.630;2023-05-29T06:32:49;101407.52;;;19.92;55.06
13367;BME280;6752;52.612;13.630;2023-05-29T06:37:52;101423.92;;;19.69;55.41
13367;BME280;6752;52.612;13.630;2023-05-29T06:42:54;101423.09;;;20.27;55.98
13367;BME280;6752;52.612;13.630;2023-05-29T06:47:56;101421.31;;;20.81;53.79
13367;BME280;6752;52.612;13.630;2023-05-29T06:52:59;101428.00;;;21.24;54.23
13367;BME280;6752;52.612;13.630;2023-05-29T06:58:01;101428.73;;;21.41;53.13
13367;BME280;6752;52.612;13.630;2023-05-29T07:03:04;101428.20;;;21.69;52.29
13367;BME280;6752;52.612;13.630;2023-05-29T07:08:06;101429.73;;;21.66;51.89
13367;BME280;6752;52.612;13.630;2023-05-29T07:13:08;101429.13;;;22.40;51.84
13367;BME280;6752;52.612;13.630;2023-05-29T07:18:11;101439.27;;;23.15;50.88
13367;BME280;6752;52.612;13.630;2023-05-29T07:23:13;101434.37;;;22.94;48.77
13367;BME280;6752;52.612;13.630;2023-05-29T07:28:16;101439.30;;;21.59;50.92
13367;BME280;6752;52.612;13.630;2023-05-29T07:33:18;101436.04;;;23.69;48.14
13367;BME280;6752;52.612;13.630;2023-05-29T07:38:20;101434.06;;;23.87;47.40
13367;BME280;6752;52.612;13.630;2023-05-29T07:43:23;101442.14;;;23.49;48.36
13367;BME280;6752;52.612;13.630;2023-05-29T07:48:25;101445.97;;;23.11;48.93
13367;BME280;6752;52.612;13.630;2023-05-29T07:53:27;101452.43;;;23.49;48.48
13367;BME280;6752;52.612;13.630;2023-05-29T07:58:30;101448.81;;;24.04;46.77
13367;BME280;6752;52.612;13.630;2023-05-29T08:03:32;101449.39;;;24.47;45.89
13367;BME280;6752;52.612;13.630;2023-05-29T08:08:35;101444.20;;;25.47;44.87
13367;BME280;6752;52.612;13.630;2023-05-29T08:13:37;101449.30;;;25.80;45.86
13367;BME280;6752;52.612;13.630;2023-05-29T08:18:39;101444.48;;;26.00;46.01
13367;BME280;6752;52.612;13.630;2023-05-29T08:23:42;101435.40;;;26.68;44.03
13367;BME280;6752;52.612;13.630;2023-05-29T08:28:44;101427.03;;;26.75;42.14
13367;BME280;6752;52.612;13.630;2023-05-29T08:33:47;101429.84;;;27.67;41.47
13367;BME280;6752;52.612;13.630;2023-05-29T08:38:49;101422.16;;;26.30;40.69
13367;BME280;6752;52.612;13.630;2023-05-29T08:43:52;101423.87;;;27.24;40.74
13367;BME280;6752;52.612;13.630;2023-05-29T08:48:54;101406.69;;;28.29;38.37
13367;BME280;6752;52.612;13.630;2023-05-29T08:53:56;101425.29;;;27.65;39.82
13367;BME280;6752;52.612;13.630;2023-05-29T08:58:58;101423.37;;;26.17;40.78
13367;BME280;6752;52.612;13.630;2023-05-29T09:04:01;101416.83;;;28.27;38.46
13367;BME280;6752;52.612;13.630;2023-05-29T09:09:03;101433.65;;;26.28;40.84
13367;BME280;6752;52.612;13.630;2023-05-29T09:14:06;101427.08;;;28.10;38.69
13367;BME280;6752;52.612;13.630;2023-05-29T09:19:08;101425.67;;;26.79;37.68
13367;BME280;6752;52.612;13.630;2023-05-29T09:24:10;101430.34;;;28.41;38.43
13367;BME280;6752;52.612;13.630;2023-05-29T09:29:12;101437.40;;;27.96;37.90
13367;BME280;6752;52.612;13.630;2023-05-29T09:34:14;101439.91;;;27.44;37.13
13367;BME280;6752;52.612;13.630;2023-05-29T09:39:17;101443.22;;;28.31;37.05
13367;BME280;6752;52.612;13.630;2023-05-29T09:44:19;101438.81;;;26.85;38.04
13367;BME280;6752;52.612;13.630;2023-05-29T09:49:22;101441.73;;;25.97;38.46
13367;BME280;6752;52.612;13.630;2023-05-29T09:54:24;101437.30;;;26.26;38.49
13367;BME280;6752;52.612;13.630;2023-05-29T09:59:26;101432.94;;;28.11;38.51
13367;BME280;6752;52.612;13.630;2023-05-29T10:04:29;101414.06;;;27.94;35.55
13367;BME280;6752;52.612;13.630;2023-05-29T10:09:31;101413.86;;;30.60;35.61
13367;BME280;6752;52.612;13.630;2023-05-29T10:14:33;101432.25;;;26.28;39.98
13367;BME280;6752;52.612;13.630;2023-05-29T10:19:36;101424.61;;;28.55;37.57
13367;BME280;6752;52.612;13.630;2023-05-29T10:24:38;101420.77;;;26.91;37.25
13367;BME280;6752;52.612;13.630;2023-05-29T10:29:50;101421.41;;;24.79;37.77
13367;BME280;6752;52.612;13.630;2023-05-29T10:35:06;101418.40;;;27.42;36.73
13367;BME280;6752;52.612;13.630;2023-05-29T10:40:03;101410.95;;;26.67;36.50
13367;BME280;6752;52.612;13.630;2023-05-29T10:45:05;101415.80;;;27.34;36.31
13367;BME280;6752;52.612;13.630;2023-05-29T10:50:07;101404.09;;;27.95;35.91
13367;BME280;6752;52.612;13.630;2023-05-29T11:00:11;101409.17;;;28.94;35.56
13367;BME280;6752;52.612;13.630;2023-05-29T11:05:20;101394.81;;;30.23;34.34
13367;BME280;6752;52.612;13.630;2023-05-29T11:10:44;101392.59;;;28.01;33.85
13367;BME280;6752;52.612;13.630;2023-05-29T11:15:46;101383.61;;;29.39;33.41
13367;BME280;6752;52.612;13.630;2023-05-29T11:20:52;101386.63;;;28.88;34.50
13367;BME280;6752;52.612;13.630;2023-05-29T11:25:53;101391.54;;;26.45;36.67
13367;BME280;6752;52.612;13.630;2023-05-29T11:30:55;101382.76;;;28.67;35.46
13367;BME280;6752;52.612;13.630;2023-05-29T11:35:58;101373.38;;;29.60;33.70
13367;BME280;6752;52.612;13.630;2023-05-29T11:41:01;101372.19;;;29.10;33.95
13367;BME280;6752;52.612;13.630;2023-05-29T11:46:13;101370.50;;;30.23;32.56
13367;BME280;6752;52.612;13.630;2023-05-29T11:51:05;101373.35;;;30.01;33.15
13367;BME280;6752;52.612;13.630;2023-05-29T11:56:08;101369.39;;;31.77;31.96
13367;BME280;6752;52.612;13.630;2023-05-29T12:01:10;101380.50;;;28.22;34.64
13367;BME280;6752;52.612;13.630;2023-05-29T12:06:12;101368.08;;;28.15;33.83
13367;BME280;6752;52.612;13.630;2023-05-29T12:11:14;101370.78;;;27.78;35.06
13367;BME280;6752;52.612;13.630;2023-05-29T12:16:16;101367.12;;;27.88;34.85
13367;BME280;6752;52.612;13.630;2023-05-29T12:21:19;101366.64;;;28.37;36.46
13367;BME280;6752;52.612;13.630;2023-05-29T12:26:24;101365.24;;;28.06;35.03
13367;BME280;6752;52.612;13.630;2023-05-29T12:31:29;101357.94;;;29.34;34.72
13367;BME280;6752;52.612;13.630;2023-05-29T12:36:31;101355.27;;;29.42;33.86
13367;BME280;6752;52.612;13.630;2023-05-29T12:41:34;101354.66;;;28.25;33.81
13367;BME280;6752;52.612;13.630;2023-05-29T12:46:40;101362.34;;;27.44;35.44
13367;BME280;6752;52.612;13.630;2023-05-29T12:51:41;101364.66;;;28.02;35.62
13367;BME280;6752;52.612;13.630;2023-05-29T12:56:43;101353.15;;;28.39;35.65
13367;BME280;6752;52.612;13.630;2023-05-29T13:01:46;101357.78;;;27.82;35.02
13367;BME280;6752;52.612;13.630;2023-05-29T13:06:48;101360.04;;;26.12;37.88
13367;BME280;6752;52.612;13.630;2023-05-29T13:11:51;101357.20;;;27.82;36.79
13367;BME280;6752;52.612;13.630;2023-05-29T13:16:53;101346.28;;;27.72;35.78
13367;BME280;6752;52.612;13.630;2023-05-29T13:21:55;101337.75;;;27.59;35.71
13367;BME280;6752;52.612;13.630;2023-05-29T13:26:58;101346.48;;;26.92;36.84
13367;BME280;6752;52.612;13.630;2023-05-29T13:32:00;101336.70;;;26.26;36.28
13367;BME280;6752;52.612;13.630;2023-05-29T13:37:02;101335.00;;;26.14;36.68
13367;BME280;6752;52.612;13.630;2023-05-29T13:42:05;101337.69;;;27.62;36.48
13367;BME280;6752;52.612;13.630;2023-05-29T13:47:06;101333.30;;;27.02;36.68
13367;BME280;6752;52.612;13.630;2023-05-29T13:52:09;101341.16;;;25.06;38.45
13367;BME280;6752;52.612;13.630;2023-05-29T13:57:11;101343.52;;;26.43;38.70
13367;BME280;6752;52.612;13.630;2023-05-29T14:02:13;101343.45;;;27.38;36.12
13367;BME280;6752;52.612;13.630;2023-05-29T14:07:15;101355.00;;;25.65;39.43
13367;BME280;6752;52.612;13.630;2023-05-29T14:12:18;101349.97;;;24.43;39.74
13367;BME280;6752;52.612;13.630;2023-05-29T14:17:20;101356.80;;;25.98;39.08
13367;BME280;6752;52.612;13.630;2023-05-29T14:22:22;101345.25;;;25.30;38.74
13367;BME280;6752;52.612;13.630;2023-05-29T14:27:24;101332.20;;;26.14;36.80
13367;BME280;6752;52.612;13.630;2023-05-29T14:32:26;101327.47;;;25.07;37.65
13367;BME280;6752;52.612;13.630;2023-05-29T14:37:28;101323.62;;;25.48;37.88
13367;BME280;6752;52.612;13.630;2023-05-29T14:42:30;101321.27;;;25.94;37.74
13367;BME280;6752;52.612;13.630;2023-05-29T14:47:33;101323.62;;;25.48;37.67
13367;BME280;6752;52.612;13.630;2023-05-29T14:52:35;101320.36;;;25.60;38.20
13367;BME280;6752;52.612;13.630;2023-05-29T14:57:38;101334.95;;;25.03;37.56
13367;BME280;6752;52.612;13.630;2023-05-29T15:02:40;101332.33;;;25.11;38.54
13367;BME280;6752;52.612;13.630;2023-05-29T15:07:42;101329.02;;;24.88;37.62
13367;BME280;6752;52.612;13.630;2023-05-29T15:12:45;101323.08;;;24.04;38.54
13367;BME280;6752;52.612;13.630;2023-05-29T15:17:47;101328.29;;;24.58;38.34
13367;BME280;6752;52.612;13.630;2023-05-29T15:22:50;101317.44;;;24.69;37.83
13367;BME280;6752;52.612;13.630;2023-05-29T15:27:52;101323.29;;;24.89;38.34
13367;BME280;6752;52.612;13.630;2023-05-29T15:32:54;101324.83;;;25.09;37.45
13367;BME280;6752;52.612;13.630;2023-05-29T15:37:57;101305.64;;;24.74;35.16
13367;BME280;6752;52.612;13.630;2023-05-29T15:42:59;101320.95;;;25.05;37.42
13367;BME280;6752;52.612;13.630;2023-05-29T15:48:01;101316.45;;;24.36;38.01
13367;BME280;6752;52.612;13.630;2023-05-29T15:53:04;101315.48;;;24.39;38.18
13367;BME280;6752;52.612;13.630;2023-05-29T15:58:06;101322.70;;;23.55;39.75
13367;BME280;6752;52.612;13.630;2023-05-29T16:03:09;101314.74;;;24.16;38.59
13367;BME280;6752;52.612;13.630;2023-05-29T16:08:11;101328.23;;;23.77;38.78
13367;BME280;6752;52.612;13.630;2023-05-29T16:13:13;101341.45;;;22.83;41.05
13367;BME280;6752;52.612;13.630;2023-05-29T16:18:16;101340.36;;;21.92;42.43
13367;BME280;6752;52.612;13.630;2023-05-29T16:23:18;101346.55;;;22.21;42.12
13367;BME280;6752;52.612;13.630;2023-05-29T16:28:20;101344.12;;;22.07;41.71
13367;BME280;6752;52.612;13.630;2023-05-29T16:33:22;101336.41;;;22.23;42.98
13367;BME280;6752;52.612;13.630;2023-05-29T16:38:24;101340.78;;;23.04;41.89
13367;BME280;6752;52.612;13.630;2023-05-29T16:43:27;101340.03;;;22.88;44.05
13367;BME280;6752;52.612;13.630;2023-05-29T16:48:29;101335.81;;;21.51;43.65
13367;BME280;6752;52.612;13.630;2023-05-29T16:53:32;101341.64;;;21.52;44.55
13367;BME280;6752;52.612;13.630;2023-05-29T16:58:34;101342.77;;;21.56;43.47
13367;BME280;6752;52.612;13.630;2023-05-29T17:03:39;101345.11;;;21.48;44.07
13367;BME280;6752;52.612;13.630;2023-05-29T17:08:41;101342.73;;;21.76;44.06
13367;BME280;6752;52.612;13.630;2023-05-29T17:13:44;101338.45;;;21.69;45.38
13367;BME280;6752;52.612;13.630;2023-05-29T17:18:46;101352.97;;;21.07;46.20
13367;BME280;6752;52.612;13.630;2023-05-29T17:23:49;101351.86;;;21.08;45.72
13367;BME280;6752;52.612;13.630;2023-05-29T17:28:51;101352.34;;;21.31;46.44
13367;BME280;6752;52.612;13.630;2023-05-29T17:33:53;101351.55;;;20.89;44.75
13367;BME280;6752;52.612;13.630;2023-05-29T17:38:57;101345.59;;;21.02;45.29
13367;BME280;6752;52.612;13.630;2023-05-29T17:43:59;101360.60;;;20.62;45.63
13367;BME280;6752;52.612;13.630;2023-05-29T17:49:01;101356.08;;;20.41;46.43
13367;BME280;6752;52.612;13.630;2023-05-29T17:54:04;101356.39;;;19.83;47.20
13367;BME280;6752;52.612;13.630;2023-05-29T17:59:06;101369.74;;;19.73;48.85
13367;BME280;6752;52.612;13.630;2023-05-29T18:04:09;101377.38;;;19.61;48.19
13367;BME280;6752;52.612;13.630;2023-05-29T18:09:11;101388.20;;;19.51;49.14
13367;BME280;6752;52.612;13.630;2023-05-29T18:14:13;101387.84;;;19.40;49.78
13367;BME280;6752;52.612;13.630;2023-05-29T18:19:16;101386.30;;;18.98;49.14
13367;BME280;6752;52.612;13.630;2023-05-29T18:24:18;101385.61;;;19.12;50.74
13367;BME280;6752;52.612;13.630;2023-05-29T18:29:20;101376.36;;;19.26;50.30
13367;BME280;6752;52.612;13.630;2023-05-29T18:34:22;101381.56;;;19.20;50.44
13367;BME280;6752;52.612;13.630;2023-05-29T18:39:31;101390.22;;;18.47;50.90
13367;BME280;6752;52.612;13.630;2023-05-29T18:44:33;101390.02;;;17.77;51.75
13367;BME280;6752;52.612;13.630;2023-05-29T18:49:35;101395.00;;;17.71;50.94
13367;BME280;6752;52.612;13.630;2023-05-29T18:54:37;101408.31;;;17.51;50.39
13367;BME280;6752;52.612;13.630;2023-05-29T18:59:40;101414.41;;;17.62;50.64
13367;BME280;6752;52.612;13.630;2023-05-29T19:04:42;101409.15;;;17.52;50.89
13367;BME280;6752;52.612;13.630;2023-05-29T19:09:44;101412.59;;;17.68;50.95
13367;BME280;6752;52.612;13.630;2023-05-29T19:14:47;101411.81;;;17.64;51.16
13367;BME280;6752;52.612;13.630;2023-05-29T19:19:49;101414.00;;;17.39;51.83
13367;BME280;6752;52.612;13.630;2023-05-29T19:24:51;101420.30;;;17.29;52.10
13367;BME280;6752;52.612;13.630;2023-05-29T19:29:54;101425.59;;;17.10;52.45
13367;BME280;6752;52.612;13.630;2023-05-29T19:34:56;101436.36;;;16.34;53.87
13367;BME280;6752;52.612;13.630;2023-05-29T19:39:59;101441.27;;;16.52;53.20
13367;BME280;6752;52.612;13.630;2023-05-29T19:45:01;101446.27;;;16.41;53.88
13367;BME280;6752;52.612;13.630;2023-05-29T19:50:04;101453.28;;;16.17;54.22
13367;BME280;6752;52.612;13.630;2023-05-29T19:55:06;101457.76;;;16.20;54.19
13367;BME280;6752;52.612;13.630;2023-05-29T20:00:08;101476.95;;;15.74;55.77
13367;BME280;6752;52.612;13.630;2023-05-29T20:05:11;101483.63;;;15.66;55.66
13367;BME280;6752;52.612;13.630;2023-05-29T20:10:13;101486.93;;;15.41;56.17
13367;BME280;6752;52.612;13.630;2023-05-29T20:15:16;101487.23;;;15.33;56.13
13367;BME280;6752;52.612;13.630;2023-05-29T20:20:18;101494.73;;;15.02;56.78
13367;BME280;6752;52.612;13.630;2023-05-29T20:25:20;101504.78;;;14.93;57.27
13367;BME280;6752;52.612;13.630;2023-05-29T20:30:23;101502.95;;;14.69;58.15
13367;BME280;6752;52.612;13.630;2023-05-29T20:35:25;101516.42;;;14.02;59.97
13367;BME280;6752;52.612;13.630;2023-05-29T20:40:27;101518.64;;;13.87;60.29
13367;BME280;6752;52.612;13.630;2023-05-29T20:45:30;101520.95;;;14.02;60.11
13367;BME280;6752;52.612;13.630;2023-05-29T20:50:32;101524.43;;;13.75;60.88
13367;BME280;6752;52.612;13.630;2023-05-29T20:55:35;101533.27;;;13.90;60.51
13367;BME280;6752;52.612;13.630;2023-05-29T21:00:37;101520.96;;;13.87;60.01
13367;BME280;6752;52.612;13.630;2023-05-29T21:05:39;101511.59;;;13.73;60.63
13367;BME280;6752;52.612;13.630;2023-05-29T21:10:42;101516.56;;;13.66;60.51
13367;BME280;6752;52.612;13.630;2023-05-29T21:15:44;101506.99;;;13.51;61.59
13367;BME280;6752;52.612;13.630;2023-05-29T21:20:47;101502.11;;;13.56;61.08
13367;BME280;6752;52.612;13.630;2023-05-29T21:25:49;101495.84;;;13.49;60.67
13367;BME280;6752;52.612;13.630;2023-05-29T21:30:51;101494.73;;;13.38;61.40
13367;BME280;6752;52.612;13.630;2023-05-29T21:35:54;101505.85;;;13.24;62.20
13367;BME280;6752;52.612;13.630;2023-05-29T21:40:56;101505.38;;;12.85;65.15
13367;BME280;6752;52.612;13.630;2023-05-29T21:45:58;101509.16;;;12.84;64.97
13367;BME280;6752;52.612;13.630;2023-05-29T21:51:01;101512.55;;;12.73;65.43
13367;BME280;6752;52.612;13.630;2023-05-29T21:56:02;101516.19;;;12.57;66.16
13367;BME280;6752;52.612;13.630;2023-05-29T22:01:04;101511.48;;;12.35;66.99
13367;BME280;6752;52.612;13.630;2023-05-29T22:06:06;101514.42;;;12.24;66.68
13367;BME280;6752;52.612;13.630;2023-05-29T22:11:09;101508.43;;;12.24;65.75
13367;BME280;6752;52.612;13.630;2023-05-29T22:16:12;101522.31;;;12.06;66.48
13367;BME280;6752;52.612;13.630;2023-05-29T22:21:16;101527.36;;;11.96;67.16
13367;BME280;6752;52.612;13.630;2023-05-29T22:26:19;101535.25;;;11.85;67.60
13367;BME280;6752;52.612;13.630;2023-05-29T22:31:23;101538.89;;;11.78;67.38
13367;BME280;6752;52.612;13.630;2023-05-29T22:36:26;101544.73;;;11.62;69.08
13367;BME280;6752;52.612;13.630;2023-05-29T22:41:28;101540.91;;;11.46;69.91
13367;BME280;6752;52.612;13.630;2023-05-29T22:46:30;101544.88;;;11.37;70.61
13367;BME280;6752;52.612;13.630;2023-05-29T22:51:32;101551.31;;;10.96;73.40
13367;BME280;6752;52.612;13.630;2023-05-29T22:56:35;101544.17;;;10.95;73.62
13367;BME280;6752;52.612;13.630;2023-05-29T23:01:37;101545.94;;;10.92;72.67
13367;BME280;6752;52.612;13.630;2023-05-29T23:06:39;101542.52;;;10.83;73.41
13367;BME280;6752;52.612;13.630;2023-05-29T23:11:42;101537.94;;;10.66;74.42
13367;BME280;6752;52.612;13.630;2023-05-29T23:16:44;101537.63;;;10.55;74.82
13367;BME280;6752;52.612;13.630;2023-05-29T23:21:47;101541.03;;;10.43;74.25
13367;BME280;6752;52.612;13.630;2023-05-29T23:26:49;101542.84;;;10.36;74.55
13367;BME280;6752;52.612;13.630;2023-05-29T23:31:51;101537.75;;;10.05;76.29
13367;BME280;6752;52.612;13.630;2023-05-29T23:36:54;101543.84;;;9.64;78.31
13367;BME280;6752;52.612;13.630;2023-05-29T23:41:56;101545.87;;;9.98;75.45
13367;BME280;6752;52.612;13.630;2023-05-29T23:46:58;101546.69;;;9.74;77.57
13367;BME280;6752;52.612;13.630;2023-05-29T23:52:01;101550.02;;;9.44;79.24
13367;BME280;6752;52.612;13.630;2023-05-29T23:57:03;101556.91;;;9.50;81.49
